sensor_id;sensor_type;location;lat;lon;timestamp;pressure;altitude;pressure_sealevel;temperature;humidity
50166;BME280;36071;48.140;11.516;2023-02-13T00:03:27;97360.0;;;2.7;84.2
50166;BME280;36071;48.140;11.516;2023-02-13T00:08:28;97350.0;;;2.8;83.6
50166;BME280;36071;48.140;11.516;2023-02-13T00:13:32;97360.0;;;2.7;84.0
50166;BME280;36071;48.140;11.516;2023-02-13T00:18:28;97350.0;;;2.7;84.9
50166;BME280;36071;48.140;11.516;2023-02-13T00:23:28;97340.0;;;2.5;87.1
50166;BME280;36071;48.140;11.516;2023-02-13T00:28:27;97340.0;;;2.7;87.0
50166;BME280;36071;48.140;11.516;2023-02-13T00:33:28;97330.0;;;2.8;86.1
50166;BME280;36071;48.140;11.516;2023-02-13T00:38:28;97330.0;;;3.0;85.8
50166;BME280;36071;48.140;11.516;2023-02-13T00:43:28;97330.0;;;3.0;85.9
50166;BME280;36071;48.140;11.516;2023-02-13T00:48:28;97330.0;;;2.8;86.9
50166;BME280;36071;48.140;11.516;2023-02-13T00:58:27;97330.0;;;2.9;87.9
50166;BME280;36071;48.140;11.516;2023-02-13T01:03:28;97330.0;;;2.6;88.8
50166;BME280;36071;48.140;11.516;2023-02-13T01:08:27;97320.0;;;2.7;89.5
50166;BME280;36071;48.140;11.516;2023-02-13T01:13:27;97330.0;;;2.6;90.0
50166;BME280;36071;48.140;11.516;2023-02-13T01:18:28;97330.0;;;2.8;89.4
50166;BME280;36071;48.140;11.516;2023-02-13T01:23:29;97330.0;;;2.9;88.9
50166;BME280;36071;48.140;11.516;2023-02-13T01:28:27;97320.0;;;3.0;89.2
50166;BME280;36071;48.140;11.516;2023-02-13T01:33:27;97320.0;;;3.0;88.2
50166;BME280;36071;48.140;11.516;2023-02-13T01:38:27;97320.0;;;3.1;86.9
50166;BME280;36071;48.140;11.516;2023-02-13T01:48:28;97320.0;;;2.9;87.2
50166;BME280;36071;48.140;11.516;2023-02-13T01:53:28;97310.0;;;2.7;87.0
50166;BME280;36071;48.140;11.516;2023-02-13T02:03:29;97320.0;;;2.7;87.9
50166;BME280;36071;48.140;11.516;2023-02-13T02:08:27;97310.0;;;2.5;88.1
50166;BME280;36071;48.140;11.516;2023-02-13T02:13:28;97320.0;;;2.6;87.9
50166;BME280;36071;48.140;11.516;2023-02-13T02:18:27;97330.0;;;2.4;88.9
50166;BME280;36071;48.140;11.516;2023-02-13T02:23:36;97340.0;;;2.5;89.1
50166;BME280;36071;48.140;11.516;2023-02-13T02:28:30;97330.0;;;2.3;88.2
50166;BME280;36071;48.140;11.516;2023-02-13T02:33:29;97320.0;;;2.4;88.7
50166;BME280;36071;48.140;11.516;2023-02-13T02:38:33;97320.0;;;2.5;88.8
50166;BME280;36071;48.140;11.516;2023-02-13T02:43:29;97330.0;;;2.6;88.7
50166;BME280;36071;48.140;11.516;2023-02-13T02:48:28;97320.0;;;2.6;87.3
50166;BME280;36071;48.140;11.516;2023-02-13T02:53:30;97330.0;;;2.6;86.5
50166;BME280;36071;48.140;11.516;2023-02-13T02:58:29;97330.0;;;2.7;87.2
50166;BME280;36071;48.140;11.516;2023-02-13T03:03:27;97330.0;;;2.7;88.4
50166;BME280;36071;48.140;11.516;2023-02-13T03:08:28;97320.0;;;2.8;87.7
50166;BME280;36071;48.140;11.516;2023-02-13T03:13:30;97320.0;;;2.7;85.4
50166;BME280;36071;48.140;11.516;2023-02-13T03:18:28;97320.0;;;2.8;85.4
50166;BME280;36071;48.140;11.516;2023-02-13T03:23:30;97320.0;;;2.6;85.1
50166;BME280;36071;48.140;11.516;2023-02-13T03:28:31;97330.0;;;2.5;85.7
50166;BME280;36071;48.140;11.516;2023-02-13T03:33:33;97330.0;;;2.3;86.3
50166;BME280;36071;48.140;11.516;2023-02-13T03:38:28;97340.0;;;2.2;88.6
50166;BME280;36071;48.140;11.516;2023-02-13T03:43:28;97330.0;;;2.3;88.5
50166;BME280;36071;48.140;11.516;2023-02-13T03:48:28;97330.0;;;2.3;88.1
50166;BME280;36071;48.140;11.516;2023-02-13T03:53:28;97350.0;;;2.4;86.7
50166;BME280;36071;48.140;11.516;2023-02-13T03:58:28;97340.0;;;2.5;86.1
50166;BME280;36071;48.140;11.516;2023-02-13T04:03:29;97340.0;;;2.6;86.5
50166;BME280;36071;48.140;11.516;2023-02-13T04:08:28;97340.0;;;2.5;87.0
50166;BME280;36071;48.140;11.516;2023-02-13T04:13:29;97340.0;;;2.5;86.2
50166;BME280;36071;48.140;11.516;2023-02-13T04:18:28;97350.0;;;2.5;86.3
50166;BME280;36071;48.140;11.516;2023-02-13T04:23:28;97340.0;;;2.5;85.7
50166;BME280;36071;48.140;11.516;2023-02-13T04:28:27;97350.0;;;2.5;85.5
50166;BME280;36071;48.140;11.516;2023-02-13T04:33:28;97340.0;;;2.2;86.6
50166;BME280;36071;48.140;11.516;2023-02-13T04:38:27;97350.0;;;2.3;86.3
50166;BME280;36071;48.140;11.516;2023-02-13T04:43:27;97340.0;;;2.4;86.3
50166;BME280;36071;48.140;11.516;2023-02-13T04:48:27;97340.0;;;2.4;85.8
50166;BME280;36071;48.140;11.516;2023-02-13T04:53:28;97340.0;;;2.3;85.6
50166;BME280;36071;48.140;11.516;2023-02-13T04:58:27;97340.0;;;2.2;86.3
50166;BME280;36071;48.140;11.516;2023-02-13T05:03:27;97340.0;;;2.3;86.8
50166;BME280;36071;48.140;11.516;2023-02-13T05:08:27;97340.0;;;2.3;86.5
50166;BME280;36071;48.140;11.516;2023-02-13T05:13:27;97350.0;;;2.3;87.0
50166;BME280;36071;48.140;11.516;2023-02-13T05:18:28;97350.0;;;2.3;86.2
50166;BME280;36071;48.140;11.516;2023-02-13T05:23:27;97350.0;;;2.1;86.3
50166;BME280;36071;48.140;11.516;2023-02-13T05:28:27;97340.0;;;2.2;86.4
50166;BME280;36071;48.140;11.516;2023-02-13T05:33:28;97340.0;;;2.2;86.1
50166;BME280;36071;48.140;11.516;2023-02-13T05:38:27;97360.0;;;2.2;86.1
50166;BME280;36071;48.140;11.516;2023-02-13T05:43:27;97350.0;;;2.1;86.4
50166;BME280;36071;48.140;11.516;2023-02-13T05:48:28;97360.0;;;2.1;86.1
50166;BME280;36071;48.140;11.516;2023-02-13T05:53:27;97370.0;;;2.0;88.0
50166;BME280;36071;48.140;11.516;2023-02-13T05:58:28;97370.0;;;2.1;86.7
50166;BME280;36071;48.140;11.516;2023-02-13T06:08:28;97370.0;;;2.0;85.8
50166;BME280;36071;48.140;11.516;2023-02-13T06:13:27;97380.0;;;2.0;86.7
50166;BME280;36071;48.140;11.516;2023-02-13T06:18:28;97380.0;;;2.1;85.8
50166;BME280;36071;48.140;11.516;2023-02-13T06:23:27;97370.0;;;2.2;86.6
50166;BME280;36071;48.140;11.516;2023-02-13T06:28:28;97390.0;;;2.2;87.1
50166;BME280;36071;48.140;11.516;2023-02-13T06:33:28;97390.0;;;2.0;86.2
50166;BME280;36071;48.140;11.516;2023-02-13T06:38:27;97390.0;;;2.0;86.6
50166;BME280;36071;48.140;11.516;2023-02-13T06:43:29;97390.0;;;1.9;86.0
50166;BME280;36071;48.140;11.516;2023-02-13T06:48:28;97390.0;;;2.1;86.3
50166;BME280;36071;48.140;11.516;2023-02-13T06:53:28;97400.0;;;2.0;86.3
50166;BME280;36071;48.140;11.516;2023-02-13T06:58:27;97400.0;;;2.1;85.9
50166;BME280;36071;48.140;11.516;2023-02-13T07:03:27;97400.0;;;2.0;86.3
50166;BME280;36071;48.140;11.516;2023-02-13T07:08:28;97410.0;;;2.1;87.2
50166;BME280;36071;48.140;11.516;2023-02-13T07:13:27;97410.0;;;1.9;86.4
50166;BME280;36071;48.140;11.516;2023-02-13T07:18:27;97420.0;;;2.0;86.8
50166;BME280;36071;48.140;11.516;2023-02-13T07:23:27;97430.0;;;1.9;86.7
50166;BME280;36071;48.140;11.516;2023-02-13T07:28:28;97420.0;;;2.0;85.7
50166;BME280;36071;48.140;11.516;2023-02-13T07:33:27;97430.0;;;2.0;86.8
50166;BME280;36071;48.140;11.516;2023-02-13T07:38:28;97440.0;;;2.0;87.3
50166;BME280;36071;48.140;11.516;2023-02-13T07:43:28;97440.0;;;1.9;86.8
50166;BME280;36071;48.140;11.516;2023-02-13T07:48:28;97440.0;;;1.8;87.6
50166;BME280;36071;48.140;11.516;2023-02-13T07:53:28;97450.0;;;1.9;88.3
50166;BME280;36071;48.140;11.516;2023-02-13T07:58:27;97460.0;;;2.0;88.1
50166;BME280;36071;48.140;11.516;2023-02-13T08:03:27;97470.0;;;1.9;87.4
50166;BME280;36071;48.140;11.516;2023-02-13T08:08:27;97450.0;;;2.0;87.2
50166;BME280;36071;48.140;11.516;2023-02-13T08:13:27;97460.0;;;2.0;87.7
50166;BME280;36071;48.140;11.516;2023-02-13T08:18:28;97460.0;;;2.1;87.5
50166;BME280;36071;48.140;11.516;2023-02-13T08:23:27;97460.0;;;2.2;85.4
50166;BME280;36071;48.140;11.516;2023-02-13T08:28:28;97460.0;;;2.2;86.0
50166;BME280;36071;48.140;11.516;2023-02-13T08:33:27;97460.0;;;2.2;85.7
50166;BME280;36071;48.140;11.516;2023-02-13T08:38:27;97450.0;;;2.3;85.6
50166;BME280;36071;48.140;11.516;2023-02-13T08:43:27;97450.0;;;2.3;85.4
50166;BME280;36071;48.140;11.516;2023-02-13T08:48:28;97450.0;;;2.4;84.6
50166;BME280;36071;48.140;11.516;2023-02-13T08:53:27;97450.0;;;2.4;85.2
50166;BME280;36071;48.140;11.516;2023-02-13T08:58:27;97460.0;;;2.3;86.3
50166;BME280;36071;48.140;11.516;2023-02-13T09:03:28;97450.0;;;2.5;84.8
50166;BME280;36071;48.140;11.516;2023-02-13T09:08:27;97460.0;;;2.4;85.5
50166;BME280;36071;48.140;11.516;2023-02-13T09:13:28;97470.0;;;2.6;84.9
50166;BME280;36071;48.140;11.516;2023-02-13T09:18:28;97470.0;;;2.7;83.9
50166;BME280;36071;48.140;11.516;2023-02-13T09:23:29;97470.0;;;2.6;83.4
50166;BME280;36071;48.140;11.516;2023-02-13T09:28:28;97470.0;;;2.7;82.4
50166;BME280;36071;48.140;11.516;2023-02-13T09:33:27;97460.0;;;2.7;82.9
50166;BME280;36071;48.140;11.516;2023-02-13T09:38:27;97470.0;;;2.7;83.8
50166;BME280;36071;48.140;11.516;2023-02-13T09:43:29;97470.0;;;2.7;83.3
50166;BME280;36071;48.140;11.516;2023-02-13T09:48:28;97470.0;;;2.7;82.6
50166;BME280;36071;48.140;11.516;2023-02-13T09:53:28;97470.0;;;2.7;83.1
50166;BME280;36071;48.140;11.516;2023-02-13T09:58:33;97480.0;;;2.8;81.9
50166;BME280;36071;48.140;11.516;2023-02-13T10:03:28;97470.0;;;2.8;82.0
50166;BME280;36071;48.140;11.516;2023-02-13T10:08:30;97480.0;;;2.7;82.4
50166;BME280;36071;48.140;11.516;2023-02-13T10:13:30;97480.0;;;2.7;82.1
50166;BME280;36071;48.140;11.516;2023-02-13T10:18:29;97470.0;;;2.8;81.6
50166;BME280;36071;48.140;11.516;2023-02-13T10:23:29;97480.0;;;2.8;81.5
50166;BME280;36071;48.140;11.516;2023-02-13T10:28:29;97470.0;;;2.6;82.0
50166;BME280;36071;48.140;11.516;2023-02-13T10:33:28;97470.0;;;2.8;81.8
50166;BME280;36071;48.140;11.516;2023-02-13T10:38:28;97420.0;;;2.5;81.1
50166;BME280;36071;48.140;11.516;2023-02-13T10:43:28;97460.0;;;2.8;81.0
50166;BME280;36071;48.140;11.516;2023-02-13T10:48:36;97460.0;;;3.2;79.5
50166;BME280;36071;48.140;11.516;2023-02-13T10:53:30;97460.0;;;3.2;78.8
50166;BME280;36071;48.140;11.516;2023-02-13T10:58:30;97460.0;;;3.1;79.0
50166;BME280;36071;48.140;11.516;2023-02-13T11:03:28;97450.0;;;3.1;78.5
50166;BME280;36071;48.140;11.516;2023-02-13T11:13:28;97440.0;;;3.1;78.6
50166;BME280;36071;48.140;11.516;2023-02-13T11:18:28;97430.0;;;3.3;78.2
50166;BME280;36071;48.140;11.516;2023-02-13T11:23:32;97440.0;;;3.3;78.1
50166;BME280;36071;48.140;11.516;2023-02-13T11:28:28;97430.0;;;3.3;77.6
50166;BME280;36071;48.140;11.516;2023-02-13T11:33:27;97430.0;;;3.5;77.8
50166;BME280;36071;48.140;11.516;2023-02-13T11:38:27;97430.0;;;3.5;76.6
50166;BME280;36071;48.140;11.516;2023-02-13T11:43:30;97430.0;;;3.5;77.4
50166;BME280;36071;48.140;11.516;2023-02-13T11:48:28;97430.0;;;3.6;76.4
50166;BME280;36071;48.140;11.516;2023-02-13T11:53:28;97430.0;;;3.5;76.9
50166;BME280;36071;48.140;11.516;2023-02-13T11:58:28;97440.0;;;3.7;76.0
50166;BME280;36071;48.140;11.516;2023-02-13T12:03:28;97430.0;;;3.9;74.6
50166;BME280;36071;48.140;11.516;2023-02-13T12:08:28;97430.0;;;4.1;74.9
50166;BME280;36071;48.140;11.516;2023-02-13T12:13:29;97430.0;;;4.1;74.4
50166;BME280;36071;48.140;11.516;2023-02-13T12:18:28;97420.0;;;4.0;74.0
50166;BME280;36071;48.140;11.516;2023-02-13T12:23:29;97420.0;;;4.1;74.2
50166;BME280;36071;48.140;11.516;2023-02-13T12:28:31;97410.0;;;4.1;74.0
50166;BME280;36071;48.140;11.516;2023-02-13T12:33:32;97410.0;;;4.3;73.3
50166;BME280;36071;48.140;11.516;2023-02-13T12:38:31;97400.0;;;4.2;72.9
50166;BME280;36071;48.140;11.516;2023-02-13T12:43:33;97400.0;;;4.4;73.6
50166;BME280;36071;48.140;11.516;2023-02-13T12:48:31;97390.0;;;4.7;72.4
50166;BME280;36071;48.140;11.516;2023-02-13T12:53:33;97390.0;;;4.8;72.1
50166;BME280;36071;48.140;11.516;2023-02-13T12:58:33;97380.0;;;4.9;71.3
50166;BME280;36071;48.140;11.516;2023-02-13T13:03:30;97380.0;;;4.9;71.2
50166;BME280;36071;48.140;11.516;2023-02-13T13:08:35;97370.0;;;5.3;71.0
50166;BME280;36071;48.140;11.516;2023-02-13T13:13:31;97370.0;;;5.3;70.2
50166;BME280;36071;48.140;11.516;2023-02-13T13:18:32;97380.0;;;5.2;70.2
50166;BME280;36071;48.140;11.516;2023-02-13T13:23:29;97380.0;;;5.3;69.5
50166;BME280;36071;48.140;11.516;2023-02-13T13:28:28;97380.0;;;5.4;68.7
50166;BME280;36071;48.140;11.516;2023-02-13T13:33:27;97380.0;;;5.2;68.0
50166;BME280;36071;48.140;11.516;2023-02-13T13:38:30;97380.0;;;5.1;69.0
50166;BME280;36071;48.140;11.516;2023-02-13T13:43:29;97380.0;;;5.1;69.5
50166;BME280;36071;48.140;11.516;2023-02-13T13:48:54;97390.0;;;5.0;70.0
50166;BME280;36071;48.140;11.516;2023-02-13T13:53:27;97400.0;;;5.0;69.8
50166;BME280;36071;48.140;11.516;2023-02-13T13:58:32;97390.0;;;5.0;68.9
50166;BME280;36071;48.140;11.516;2023-02-13T14:03:33;97400.0;;;4.8;69.6
50166;BME280;36071;48.140;11.516;2023-02-13T14:08:58;97390.0;;;4.9;69.9
50166;BME280;36071;48.140;11.516;2023-02-13T14:13:28;97390.0;;;4.7;69.8
50166;BME280;36071;48.140;11.516;2023-02-13T14:18:28;97390.0;;;4.8;70.2
50166;BME280;36071;48.140;11.516;2023-02-13T14:23:30;97380.0;;;4.8;69.9
50166;BME280;36071;48.140;11.516;2023-02-13T14:28:27;97380.0;;;4.7;70.6
50166;BME280;36071;48.140;11.516;2023-02-13T14:33:28;97380.0;;;4.8;70.1
50166;BME280;36071;48.140;11.516;2023-02-13T14:38:28;97370.0;;;4.6;70.5
50166;BME280;36071;48.140;11.516;2023-02-13T14:43:30;97380.0;;;4.7;70.0
50166;BME280;36071;48.140;11.516;2023-02-13T14:48:32;97380.0;;;4.5;71.0
50166;BME280;36071;48.140;11.516;2023-02-13T14:53:29;97380.0;;;4.5;71.1
50166;BME280;36071;48.140;11.516;2023-02-13T14:58:28;97370.0;;;4.7;69.8
50166;BME280;36071;48.140;11.516;2023-02-13T15:03:28;97370.0;;;4.7;70.6
50166;BME280;36071;48.140;11.516;2023-02-13T15:08:28;97370.0;;;4.6;70.7
50166;BME280;36071;48.140;11.516;2023-02-13T15:13:30;97370.0;;;4.5;70.8
50166;BME280;36071;48.140;11.516;2023-02-13T15:18:29;97370.0;;;4.5;71.1
50166;BME280;36071;48.140;11.516;2023-02-13T15:23:28;97370.0;;;4.4;72.0
50166;BME280;36071;48.140;11.516;2023-02-13T15:28:28;97370.0;;;4.4;71.3
50166;BME280;36071;48.140;11.516;2023-02-13T15:33:28;97370.0;;;4.4;72.2
50166;BME280;36071;48.140;11.516;2023-02-13T15:38:28;97370.0;;;4.4;71.5
50166;BME280;36071;48.140;11.516;2023-02-13T15:43:31;97360.0;;;4.3;72.0
50166;BME280;36071;48.140;11.516;2023-02-13T15:48:28;97360.0;;;4.2;72.2
50166;BME280;36071;48.140;11.516;2023-02-13T15:53:28;97360.0;;;4.3;72.2
50166;BME280;36071;48.140;11.516;2023-02-13T15:58:28;97360.0;;;4.2;72.7
50166;BME280;36071;48.140;11.516;2023-02-13T16:03:28;97370.0;;;3.9;74.3
50166;BME280;36071;48.140;11.516;2023-02-13T16:08:30;97360.0;;;4.1;74.0
50166;BME280;36071;48.140;11.516;2023-02-13T16:13:27;97370.0;;;4.0;74.3
50166;BME280;36071;48.140;11.516;2023-02-13T16:18:27;97370.0;;;3.9;74.8
50166;BME280;36071;48.140;11.516;2023-02-13T16:23:29;97380.0;;;4.0;75.2
50166;BME280;36071;48.140;11.516;2023-02-13T16:28:27;97370.0;;;3.8;76.8
50166;BME280;36071;48.140;11.516;2023-02-13T16:33:28;97370.0;;;3.9;76.1
50166;BME280;36071;48.140;11.516;2023-02-13T16:38:30;97380.0;;;3.9;76.0
50166;BME280;36071;48.140;11.516;2023-02-13T16:43:43;97380.0;;;3.8;76.4
50166;BME280;36071;48.140;11.516;2023-02-13T16:48:27;97390.0;;;3.8;75.8
50166;BME280;36071;48.140;11.516;2023-02-13T16:53:27;97390.0;;;3.7;76.9
50166;BME280;36071;48.140;11.516;2023-02-13T16:58:28;97390.0;;;3.8;77.3
50166;BME280;36071;48.140;11.516;2023-02-13T17:03:28;97390.0;;;3.8;76.6
50166;BME280;36071;48.140;11.516;2023-02-13T17:08:28;97390.0;;;3.7;77.5
50166;BME280;36071;48.140;11.516;2023-02-13T17:13:27;97380.0;;;3.7;78.9
50166;BME280;36071;48.140;11.516;2023-02-13T17:18:28;97390.0;;;3.7;78.7
50166;BME280;36071;48.140;11.516;2023-02-13T17:23:27;97390.0;;;3.6;78.7
50166;BME280;36071;48.140;11.516;2023-02-13T17:28:28;97400.0;;;3.5;78.9
50166;BME280;36071;48.140;11.516;2023-02-13T17:33:28;97400.0;;;3.6;78.8
50166;BME280;36071;48.140;11.516;2023-02-13T17:38:27;97400.0;;;3.6;79.7
50166;BME280;36071;48.140;11.516;2023-02-13T17:43:27;97390.0;;;3.5;80.0
50166;BME280;36071;48.140;11.516;2023-02-13T17:48:28;97390.0;;;3.5;79.8
50166;BME280;36071;48.140;11.516;2023-02-13T17:53:28;97390.0;;;3.6;79.5
50166;BME280;36071;48.140;11.516;2023-02-13T17:58:27;97380.0;;;3.6;79.3
50166;BME280;36071;48.140;11.516;2023-02-13T18:03:28;97380.0;;;3.7;79.6
50166;BME280;36071;48.140;11.516;2023-02-13T18:08:27;97390.0;;;3.5;82.6
50166;BME280;36071;48.140;11.516;2023-02-13T18:13:27;97390.0;;;3.4;83.9
50166;BME280;36071;48.140;11.516;2023-02-13T18:18:28;97390.0;;;3.3;88.6
50166;BME280;36071;48.140;11.516;2023-02-13T18:23:27;97400.0;;;3.4;89.3
50166;BME280;36071;48.140;11.516;2023-02-13T18:28:28;97390.0;;;3.2;84.6
50166;BME280;36071;48.140;11.516;2023-02-13T18:33:28;97390.0;;;3.3;82.8
50166;BME280;36071;48.140;11.516;2023-02-13T18:38:28;97390.0;;;3.4;83.8
50166;BME280;36071;48.140;11.516;2023-02-13T18:43:28;97380.0;;;3.3;85.4
50166;BME280;36071;48.140;11.516;2023-02-13T18:48:27;97380.0;;;3.5;83.5
50166;BME280;36071;48.140;11.516;2023-02-13T18:53:28;97380.0;;;3.3;82.3
50166;BME280;36071;48.140;11.516;2023-02-13T18:58:27;97380.0;;;3.3;82.7
50166;BME280;36071;48.140;11.516;2023-02-13T19:03:28;97380.0;;;3.1;83.7
50166;BME280;36071;48.140;11.516;2023-02-13T19:08:27;97390.0;;;3.2;84.2
50166;BME280;36071;48.140;11.516;2023-02-13T19:13:27;97390.0;;;3.3;83.1
50166;BME280;36071;48.140;11.516;2023-02-13T19:18:28;97380.0;;;3.2;82.7
50166;BME280;36071;48.140;11.516;2023-02-13T19:23:28;97330.0;;;2.8;82.6
50166;BME280;36071;48.140;11.516;2023-02-13T19:28:28;97390.0;;;2.9;85.0
50166;BME280;36071;48.140;11.516;2023-02-13T19:33:28;97390.0;;;3.0;84.0
50166;BME280;36071;48.140;11.516;2023-02-13T19:38:28;97390.0;;;2.7;84.8
50166;BME280;36071;48.140;11.516;2023-02-13T19:43:27;97390.0;;;2.7;85.0
50166;BME280;36071;48.140;11.516;2023-02-13T19:48:28;97380.0;;;2.7;84.7
50166;BME280;36071;48.140;11.516;2023-02-13T19:53:27;97390.0;;;2.6;85.7
50166;BME280;36071;48.140;11.516;2023-02-13T19:58:28;97390.0;;;2.5;85.7
50166;BME280;36071;48.140;11.516;2023-02-13T20:03:28;97390.0;;;2.5;87.1
50166;BME280;36071;48.140;11.516;2023-02-13T20:08:27;97390.0;;;2.6;85.1
50166;BME280;36071;48.140;11.516;2023-02-13T20:13:27;97390.0;;;2.4;84.9
50166;BME280;36071;48.140;11.516;2023-02-13T20:18:28;97390.0;;;2.4;85.2
50166;BME280;36071;48.140;11.516;2023-02-13T20:23:27;97400.0;;;2.3;85.6
50166;BME280;36071;48.140;11.516;2023-02-13T20:28:27;97400.0;;;2.3;85.4
50166;BME280;36071;48.140;11.516;2023-02-13T20:33:27;97390.0;;;2.2;85.9
50166;BME280;36071;48.140;11.516;2023-02-13T20:38:27;97390.0;;;1.9;85.9
50166;BME280;36071;48.140;11.516;2023-02-13T20:43:27;97390.0;;;1.9;85.8
50166;BME280;36071;48.140;11.516;2023-02-13T20:48:28;97400.0;;;2.0;86.6
50166;BME280;36071;48.140;11.516;2023-02-13T20:53:28;97400.0;;;1.8;87.5
50166;BME280;36071;48.140;11.516;2023-02-13T20:58:28;97390.0;;;1.8;87.7
50166;BME280;36071;48.140;11.516;2023-02-13T21:03:28;97400.0;;;1.8;87.4
50166;BME280;36071;48.140;11.516;2023-02-13T21:08:27;97390.0;;;1.8;86.9
50166;BME280;36071;48.140;11.516;2023-02-13T21:13:27;97390.0;;;1.8;85.5
50166;BME280;36071;48.140;11.516;2023-02-13T21:18:28;97390.0;;;1.5;86.3
50166;BME280;36071;48.140;11.516;2023-02-13T21:23:27;97390.0;;;1.5;87.6
50166;BME280;36071;48.140;11.516;2023-02-13T21:28:27;97400.0;;;1.5;86.7
50166;BME280;36071;48.140;11.516;2023-02-13T21:33:28;97390.0;;;1.5;87.2
50166;BME280;36071;48.140;11.516;2023-02-13T21:38:27;97370.0;;;1.5;86.6
50166;BME280;36071;48.140;11.516;2023-02-13T21:43:27;97370.0;;;1.6;87.4
50166;BME280;36071;48.140;11.516;2023-02-13T21:48:27;97360.0;;;1.6;85.5
50166;BME280;36071;48.140;11.516;2023-02-13T21:53:29;97350.0;;;1.5;85.3
50166;BME280;36071;48.140;11.516;2023-02-13T21:58:27;97350.0;;;1.3;86.7
50166;BME280;36071;48.140;11.516;2023-02-13T22:03:27;97350.0;;;1.3;87.0
50166;BME280;36071;48.140;11.516;2023-02-13T22:08:27;97340.0;;;1.5;86.5
50166;BME280;36071;48.140;11.516;2023-02-13T22:13:28;97340.0;;;1.5;86.1
50166;BME280;36071;48.140;11.516;2023-02-13T22:18:29;97340.0;;;1.5;86.0
50166;BME280;36071;48.140;11.516;2023-02-13T22:23:29;97330.0;;;1.4;86.0
50166;BME280;36071;48.140;11.516;2023-02-13T22:28:28;97320.0;;;1.2;87.6
50166;BME280;36071;48.140;11.516;2023-02-13T22:33:27;97320.0;;;1.2;88.0
50166;BME280;36071;48.140;11.516;2023-02-13T22:38:30;97320.0;;;1.2;87.8
50166;BME280;36071;48.140;11.516;2023-02-13T22:43:28;97320.0;;;1.2;88.2
50166;BME280;36071;48.140;11.516;2023-02-13T22:48:27;97330.0;;;1.0;88.2
50166;BME280;36071;48.140;11.516;2023-02-13T22:53:27;97330.0;;;1.1;88.3
50166;BME280;36071;48.140;11.516;2023-02-13T22:58:28;97330.0;;;1.1;86.0
50166;BME280;36071;48.140;11.516;2023-02-13T23:03:30;97340.0;;;0.9;87.2
50166;BME280;36071;48.140;11.516;2023-02-13T23:08:27;97340.0;;;1.0;87.4
50166;BME280;36071;48.140;11.516;2023-02-13T23:13:28;97320.0;;;0.9;88.9
50166;BME280;36071;48.140;11.516;2023-02-13T23:18:27;97330.0;;;0.9;89.0
50166;BME280;36071;48.140;11.516;2023-02-13T23:23:27;97340.0;;;0.8;88.7
50166;BME280;36071;48.140;11.516;2023-02-13T23:28:28;97350.0;;;0.9;88.4
50166;BME280;36071;48.140;11.516;2023-02-13T23:33:28;97340.0;;;0.8;89.2
50166;BME280;36071;48.140;11.516;2023-02-13T23:38:27;97340.0;;;0.9;87.8
50166;BME280;36071;48.140;11.516;2023-02-13T23:43:27;97340.0;;;0.8;88.8
50166;BME280;36071;48.140;11.516;2023-02-13T23:48:27;97330.0;;;0.9;87.9
50166;BME280;36071;48.140;11.516;2023-02-13T23:53:28;97320.0;;;0.7;89.0
50166;BME280;36071;48.140;11.516;2023-02-13T23:58:27;97310.0;;;0.7;89.6
